Time;durP1;ratioP1;P1;durP2;ratioP2;P2;SDS_P1;SDS_P2;PMS_P1;PMS_P2;Temp;Humidity;BMP_temperature;BMP_pressure;BME280_temperature;BME280_humidity;BME280_pressure;Samples;Min_cycle;Max_cycle;Signal;HPM_P1;HPM_P2
2021/12/13 00:00:00;;;;;;;3.23;2.97;;;;;;;5.95;67.80;94639.78;5089956;28;20189;-74
2021/12/13 00:02:33;;;;;;;3.20;2.90;;;;;;;5.96;67.82;94640.63;5090155;28;20190;-74
2021/12/13 00:05:07;;;;;;;2.83;2.63;;;;;;;5.90;67.76;94629.13;5089830;28;20220;-74
2021/12/13 00:07:37;;;;;;;3.57;3.27;;;;;;;5.91;67.49;94633.28;5090001;28;20192;-73
2021/12/13 00:10:11;;;;;;;3.50;2.73;;;;;;;5.95;67.60;94644.88;5089686;28;20182;-73
2021/12/13 00:12:41;;;;;;;2.90;2.70;;;;;;;5.95;67.59;94644.88;5089735;28;20718;-75
2021/12/13 00:15:14;;;;;;;3.40;2.97;;;;;;;5.97;67.55;94649.84;5090193;28;20198;-73
2021/12/13 00:17:46;;;;;;;3.20;2.90;;;;;;;5.96;67.43;94655.84;5089877;28;20193;-74
2021/12/13 00:20:19;;;;;;;2.90;2.70;;;;;;;5.79;67.33;94624.84;5090784;28;20189;-74
2021/12/13 00:22:49;;;;;;;3.23;3.03;;;;;;;5.89;67.36;94640.22;5093614;28;20193;-75
2021/12/13 00:25:19;;;;;;;3.00;2.60;;;;;;;5.95;67.34;94651.69;5093787;28;20562;-74
2021/12/13 00:27:49;;;;;;;2.77;2.53;;;;;;;5.98;67.27;94657.34;5093909;28;20196;-73
2021/12/13 00:30:25;;;;;;;3.40;3.20;;;;;;;5.97;67.38;94653.19;5093835;28;20189;-74
2021/12/13 00:33:03;;;;;;;3.20;2.93;;;;;;;5.99;67.33;94650.53;5093672;28;20193;-74
2021/12/13 00:35:38;;;;;;;3.00;2.80;;;;;;;5.92;67.11;94639.22;5093749;28;20242;-73
2021/12/13 00:38:07;;;;;;;2.80;2.60;;;;;;;6.03;67.08;94646.88;5093213;28;20216;-74
2021/12/13 00:40:36;;;;;;;2.93;2.73;;;;;;;6.04;66.89;94645.94;5093819;28;20640;-74
2021/12/13 00:43:08;;;;;;;2.70;2.50;;;;;;;5.87;66.66;94623.47;5093293;28;20599;-74
2021/12/13 00:45:39;;;;;;;4.33;2.70;;;;;;;6.06;66.60;94648.38;5093556;28;20229;-74
2021/12/13 00:48:08;;;;;;;2.87;2.57;;;;;;;6.05;66.50;94650.13;5093256;28;20621;-74
2021/12/13 00:50:42;;;;;;;3.00;2.80;;;;;;;6.00;66.34;94647.06;5093259;28;20235;-72
2021/12/13 00:53:10;;;;;;;3.00;2.63;;;;;;;6.04;66.25;94651.00;5093423;28;20222;-73
2021/12/13 00:55:38;;;;;;;2.80;2.60;;;;;;;6.03;66.27;94647.66;5093513;28;20197;-73
2021/12/13 00:58:11;;;;;;;3.57;3.27;;;;;;;6.05;66.18;94654.38;5093150;28;20201;-73
2021/12/13 01:00:43;;;;;;;13.83;11.97;;;;;;;6.05;66.02;94650.13;5093256;28;20216;-72
2021/12/13 01:03:15;;;;;;;13.80;11.60;;;;;;;6.05;66.03;94647.56;5108909;28;20193;-73
2021/12/13 01:05:57;;;;;;;9.93;8.50;;;;;;;5.98;65.83;94631.97;5113870;28;20220;-74
2021/12/13 01:09:19;;;;;;;11.27;9.30;;;;;;;6.03;66.00;94639.25;5113299;28;20224;-73
2021/12/13 01:11:53;;;;;;;7.63;6.83;;;;;;;6.06;65.87;94635.69;5113039;28;20291;-73
2021/12/13 01:14:53;;;;;;;8.07;7.20;;;;;;;6.08;65.95;94644.78;5113741;28;20365;-73
2021/12/13 01:17:35;;;;;;;6.20;5.60;;;;;;;6.06;66.06;94641.56;5010754;28;20195;-73
2021/12/13 01:20:11;;;;;;;5.63;5.03;;;;;;;6.06;66.04;94639.03;5010395;28;20227;-73
2021/12/13 01:22:49;;;;;;;5.27;4.87;;;;;;;6.07;65.89;94639.84;5010627;28;20199;-72
2021/12/13 01:25:38;;;;;;;4.30;3.90;;;;;;;6.07;66.01;94650.00;5010483;28;20786;-71
2021/12/13 01:28:10;;;;;;;4.27;3.00;;;;;;;5.97;66.07;94627.81;5010482;28;20668;-74
2021/12/13 01:30:42;;;;;;;3.70;3.40;;;;;;;6.06;66.06;94648.38;5010568;28;20184;-72
2021/12/13 01:33:11;;;;;;;3.60;3.30;;;;;;;5.93;65.93;94628.16;5010325;28;20202;-72
2021/12/13 01:35:42;;;;;;;3.33;3.13;;;;;;;6.08;66.04;94644.78;5010478;28;20188;-73
2021/12/13 01:38:14;;;;;;;3.10;2.90;;;;;;;6.08;66.01;94638.91;5010029;28;20192;-72
2021/12/13 01:40:46;;;;;;;3.23;3.03;;;;;;;6.09;66.08;94643.91;5010259;28;20742;-72
2021/12/13 01:43:15;;;;;;;2.83;2.63;;;;;;;6.11;66.07;94649.66;5009925;28;20288;-73
2021/12/13 01:45:46;;;;;;;3.07;2.80;;;;;;;6.11;65.91;94653.94;5010146;28;20220;-73
2021/12/13 01:48:21;;;;;;;2.90;2.60;;;;;;;6.12;65.75;94653.00;5010027;28;20200;-73
2021/12/13 01:50:53;;;;;;;2.77;2.57;;;;;;;6.00;65.90;94632.69;5010248;28;20184;-73
2021/12/13 01:53:33;;;;;;;2.93;2.73;;;;;;;6.12;66.08;94650.47;5042447;28;20583;-73
2021/12/13 01:56:09;;;;;;;2.83;2.63;;;;;;;6.00;65.73;94630.16;5112949;28;20185;-72
2021/12/13 01:58:42;;;;;;;4.80;4.40;;;;;;;6.12;66.16;94642.84;5112535;28;20219;-72
2021/12/13 02:01:14;;;;;;;4.73;4.33;;;;;;;6.09;66.20;94645.59;5112894;28;20619;-72
2021/12/13 02:03:55;;;;;;;4.13;3.60;;;;;;;6.11;66.23;94648.84;5112420;28;20280;-72
2021/12/13 02:06:28;;;;;;;3.53;3.23;;;;;;;6.09;66.35;94638.81;5112429;28;20177;-72
2021/12/13 02:09:05;;;;;;;3.70;3.40;;;;;;;6.10;66.45;94642.97;5111685;28;20681;-74
2021/12/13 02:11:33;;;;;;;3.60;3.30;;;;;;;6.10;66.44;94642.16;5112350;28;20189;-72
2021/12/13 02:14:12;;;;;;;3.07;2.87;;;;;;;5.59;66.57;94568.84;5112724;28;20567;-72
2021/12/13 02:16:57;;;;;;;3.17;2.90;;;;;;;6.06;66.74;94643.31;5111968;28;20196;-73
2021/12/13 02:19:31;;;;;;;2.93;2.73;;;;;;;6.05;66.71;94645.03;5112620;28;20207;-73
2021/12/13 02:22:30;;;;;;;3.27;2.97;;;;;;;6.02;66.70;94638.44;5112168;28;20280;-72
2021/12/13 02:24:59;;;;;;;3.00;2.70;;;;;;;6.01;67.06;94636.81;5111667;28;20642;-73
2021/12/13 02:27:32;;;;;;;2.90;2.70;;;;;;;5.99;66.88;94635.31;5112339;28;20200;-72
2021/12/13 02:30:02;;;;;;;2.73;2.53;;;;;;;6.00;67.11;94626.78;5112200;28;20181;-72
2021/12/13 02:32:35;;;;;;;3.03;2.80;;;;;;;5.98;67.42;94639.59;5112183;28;20189;-72
2021/12/13 02:35:05;;;;;;;2.57;2.37;;;;;;;5.97;67.39;94637.16;5111918;28;20196;-73
2021/12/13 02:37:34;;;;;;;2.70;2.50;;;;;;;5.96;67.22;94643.16;5111744;28;20222;-72
2021/12/13 02:40:01;;;;;;;3.00;2.77;;;;;;;5.95;67.23;94646.59;5111372;28;20222;-72
2021/12/13 02:42:30;;;;;;;3.20;2.90;;;;;;;5.95;67.32;94649.13;5111730;28;20189;-72
2021/12/13 02:45:03;;;;;;;2.53;2.33;;;;;;;5.95;67.34;94646.59;5111161;28;20645;-72
2021/12/13 02:47:35;;;;;;;2.93;2.73;;;;;;;5.96;67.25;94651.59;5112177;28;20192;-71
2021/12/13 02:50:03;;;;;;;2.83;2.50;;;;;;;5.87;67.30;94633.63;5111507;28;20185;-73
2021/12/13 02:52:30;;;;;;;2.50;2.30;;;;;;;5.95;67.13;94654.22;5111573;28;20189;-72
2021/12/13 02:55:02;;;;;;;2.90;2.70;;;;;;;5.95;67.13;94647.41;5111199;28;20196;-72
2021/12/13 02:57:33;;;;;;;2.90;2.70;;;;;;;5.95;67.40;94646.59;5111294;28;20200;-72
2021/12/13 03:00:05;;;;;;;2.70;2.50;;;;;;;5.83;67.20;94630.53;5111548;28;20253;-71
2021/12/13 03:02:36;;;;;;;2.90;2.50;;;;;;;5.95;67.24;94649.94;5111278;28;20185;-72
2021/12/13 03:05:08;;;;;;;2.70;2.50;;;;;;;5.96;67.27;94648.25;5111199;28;20228;-72
2021/12/13 03:07:41;;;;;;;3.00;2.80;;;;;;;5.96;67.31;94651.59;5111198;28;20189;-74
2021/12/13 03:10:13;;;;;;;2.97;2.77;;;;;;;5.95;67.39;94651.69;5110796;28;20219;-73
2021/12/13 03:12:40;;;;;;;2.73;2.53;;;;;;;5.98;67.36;94654.00;5111138;28;20196;-73
2021/12/13 03:15:12;;;;;;;2.70;2.50;;;;;;;5.97;67.45;94647.31;5110481;28;20204;-73
2021/12/13 03:17:44;;;;;;;3.10;2.90;;;;;;;5.96;67.58;94645.72;5110792;28;20185;-72
2021/12/13 03:20:25;;;;;;;2.87;2.60;;;;;;;5.83;67.59;94627.16;5110765;28;20658;-72
2021/12/13 03:23:23;;;;;;;2.93;2.73;;;;;;;5.98;67.81;94649.72;5110920;28;20181;-72
2021/12/13 03:26:26;;;;;;;3.07;2.87;;;;;;;5.90;67.77;94641.84;5007567;28;20228;-72
2021/12/13 03:29:04;;;;;;;2.60;2.40;;;;;;;5.97;67.88;94654.94;5008078;28;20192;-73
2021/12/13 03:31:35;;;;;;;3.23;2.93;;;;;;;5.89;67.96;94636.88;5008424;28;20199;-72
2021/12/13 03:34:06;;;;;;;2.77;2.33;;;;;;;5.97;67.97;94654.94;5008210;28;20644;-72
2021/12/13 03:36:45;;;;;;;2.90;2.70;;;;;;;5.95;68.04;94652.47;5008166;28;20207;-72
2021/12/13 03:39:15;;;;;;;3.10;2.80;;;;;;;5.93;68.25;94648.47;5007918;28;20196;-72
2021/12/13 03:41:48;;;;;;;3.00;2.80;;;;;;;5.97;68.25;94660.00;5008194;28;20672;-73
2021/12/13 03:44:18;;;;;;;2.90;2.70;;;;;;;5.98;68.09;94667.50;5007833;28;20228;-72
2021/12/13 03:46:48;;;;;;;2.93;2.73;;;;;;;5.97;68.13;94657.47;5008063;28;20188;-73
2021/12/13 03:49:18;;;;;;;3.83;3.33;;;;;;;5.98;68.20;94654.00;5007901;28;20196;-74
2021/12/13 03:51:45;;;;;;;2.87;2.67;;;;;;;5.96;68.23;94656.66;5007988;28;20191;-72
2021/12/13 03:54:15;;;;;;;3.57;3.27;;;;;;;5.94;68.30;94652.59;5007512;28;20296;-72
2021/12/13 03:56:48;;;;;;;3.50;3.20;;;;;;;5.97;68.36;94653.19;5007448;28;20192;-72
2021/12/13 03:59:18;;;;;;;3.47;3.17;;;;;;;5.96;68.39;94659.19;5007650;28;20188;-72
2021/12/13 04:01:52;;;;;;;3.63;3.33;;;;;;;5.88;68.32;94645.41;5020209;28;20355;-72
2021/12/13 04:04:23;;;;;;;3.60;3.30;;;;;;;5.97;68.23;94657.47;5110111;28;20189;-72
2021/12/13 04:06:53;;;;;;;3.23;2.93;;;;;;;5.95;68.25;94665.19;5110439;28;20182;-72
2021/12/13 04:09:21;;;;;;;3.60;3.30;;;;;;;5.95;68.52;94656.75;5110294;28;20185;-73
2021/12/13 04:11:54;;;;;;;3.00;2.80;;;;;;;5.88;68.24;94641.16;5110658;28;20889;-74
2021/12/13 04:14:28;;;;;;;2.87;2.67;;;;;;;5.92;68.41;94657.81;5110417;28;20200;-74
2021/12/13 04:17:07;;;;;;;3.40;3.10;;;;;;;5.79;68.34;94641.81;5110401;28;20198;-75
2021/12/13 04:19:48;;;;;;;3.70;3.40;;;;;;;5.95;68.61;94666.91;5110214;28;20655;-73
2021/12/13 04:22:17;;;;;;;2.97;2.70;;;;;;;5.81;68.41;94645.03;5109884;28;20192;-74
2021/12/13 04:24:47;;;;;;;4.17;3.17;;;;;;;5.92;68.53;94660.34;5109689;28;20303;-72
2021/12/13 04:27:25;;;;;;;2.90;2.70;;;;;;;5.94;68.42;94666.09;5109899;28;20193;-72
2021/12/13 04:29:56;;;;;;;3.83;3.47;;;;;;;5.92;68.51;94667.97;5109837;28;20189;-72
2021/12/13 04:32:29;;;;;;;3.77;3.37;;;;;;;5.79;68.43;94650.22;5110218;28;20181;-72
2021/12/13 04:35:00;;;;;;;3.20;3.00;;;;;;;5.94;68.60;94678.00;5109826;28;20653;-72
2021/12/13 04:37:32;;;;;;;3.17;2.87;;;;;;;5.95;68.51;94682.94;5109652;28;20197;-73
2021/12/13 04:40:04;;;;;;;3.67;3.37;;;;;;;5.95;68.52;94688.03;5109919;28;20189;-72
2021/12/13 04:42:33;;;;;;;3.23;2.93;;;;;;;5.95;68.76;94693.09;5109845;28;20253;-73
2021/12/13 04:45:03;;;;;;;3.60;3.33;;;;;;;5.97;68.59;94698.09;5109627;28;20302;-71
2021/12/13 04:47:33;;;;;;;3.10;2.90;;;;;;;5.93;68.52;94686.53;5109718;28;20225;-71
2021/12/13 04:50:11;;;;;;;3.40;3.10;;;;;;;5.98;68.67;94692.88;5109632;28;20617;-72
2021/12/13 04:52:39;;;;;;;3.57;3.27;;;;;;;5.92;68.71;94683.19;5109488;28;20188;-72
2021/12/13 04:55:10;;;;;;;4.00;3.27;;;;;;;5.98;68.64;94681.94;5109821;28;20211;-72
2021/12/13 04:57:40;;;;;;;3.43;3.17;;;;;;;5.97;68.84;94683.66;5109459;28;20204;-72
2021/12/13 05:00:12;;;;;;;3.30;3.10;;;;;;;5.97;68.88;94686.19;5109603;28;20189;-74
2021/12/13 05:02:44;;;;;;;3.73;3.40;;;;;;;5.97;68.92;94686.19;5109264;28;20185;-72
2021/12/13 05:05:13;;;;;;;3.90;3.60;;;;;;;5.96;69.19;94692.19;5109878;28;20248;-73
2021/12/13 05:07:41;;;;;;;4.40;4.00;;;;;;;5.95;69.10;94689.75;5112510;28;20253;-74
2021/12/13 05:10:09;;;;;;;3.90;3.57;;;;;;;5.89;69.17;94685.09;5113357;28;20216;-72
2021/12/13 05:12:38;;;;;;;3.83;3.53;;;;;;;5.97;69.28;94695.53;5113136;28;20674;-72
2021/12/13 05:15:09;;;;;;;3.90;3.50;;;;;;;6.00;69.16;94697.84;5113641;28;20181;-73
2021/12/13 05:17:39;;;;;;;4.77;3.87;;;;;;;6.01;69.11;94699.47;5113345;28;20254;-72
2021/12/13 05:20:16;;;;;;;4.83;4.43;;;;;;;6.00;69.21;94701.22;5113644;28;20201;-73
2021/12/13 05:22:51;;;;;;;4.80;4.10;;;;;;;6.00;69.25;94698.66;5113289;28;20275;-72
2021/12/13 05:25:28;;;;;;;4.30;3.97;;;;;;;6.02;69.14;94708.72;5113214;28;20232;-73
2021/12/13 05:28:04;;;;;;;4.80;4.40;;;;;;;6.00;69.16;94713.91;5112737;28;20197;-73
2021/12/13 05:30:36;;;;;;;5.03;3.97;;;;;;;5.99;69.16;94716.53;5113497;28;20184;-73
2021/12/13 05:33:09;;;;;;;5.53;4.60;;;;;;;5.98;69.01;94705.56;5112987;28;20181;-72
2021/12/13 05:35:39;;;;;;;5.33;4.83;;;;;;;5.87;69.06;94684.38;5113165;28;20189;-72
2021/12/13 05:38:10;;;;;;;5.07;4.57;;;;;;;6.00;69.11;94713.06;5112696;28;20196;-72
2021/12/13 05:40:42;;;;;;;4.07;3.77;;;;;;;5.98;68.92;94720.81;5113089;28;20197;-73
2021/12/13 05:43:22;;;;;;;4.73;4.27;;;;;;;6.00;68.89;94718.97;5112954;28;20199;-72
2021/12/13 05:45:52;;;;;;;4.83;4.33;;;;;;;5.96;68.76;94711.69;5112376;28;20228;-72
2021/12/13 05:48:22;;;;;;;4.87;4.47;;;;;;;5.95;68.88;94708.31;5112965;28;20197;-72
2021/12/13 05:50:52;;;;;;;4.43;4.03;;;;;;;6.03;68.78;94725.53;5112295;28;20196;-72
2021/12/13 05:53:22;;;;;;;4.37;3.97;;;;;;;6.03;68.93;94728.91;5112826;28;20195;-72
2021/12/13 05:55:55;;;;;;;4.40;4.00;;;;;;;6.03;68.86;94728.09;5112533;28;20196;-72
2021/12/13 05:58:34;;;;;;;4.60;4.20;;;;;;;6.02;68.70;94724.75;5112541;28;20181;-75
2021/12/13 06:01:03;;;;;;;4.37;3.97;;;;;;;5.66;68.79;94669.78;5112184;28;20188;-72
2021/12/13 06:03:34;;;;;;;4.37;3.97;;;;;;;6.04;68.72;94734.78;5112353;28;20189;-73
2021/12/13 06:06:15;;;;;;;3.80;3.50;;;;;;;5.98;68.44;94720.00;5111885;28;20227;-72
2021/12/13 06:08:46;;;;;;;4.37;3.77;;;;;;;6.05;68.49;94736.41;5112407;28;20204;-72
2021/12/13 06:11:17;;;;;;;4.00;3.60;;;;;;;5.96;68.64;94727.72;5112000;28;20185;-73
2021/12/13 06:13:58;;;;;;;4.13;3.80;;;;;;;6.08;68.48;94753.16;5112428;28;20196;-72
2021/12/13 06:16:41;;;;;;;4.43;3.60;;;;;;;5.94;68.66;94734.63;5112308;28;20185;-74
2021/12/13 06:19:12;;;;;;;3.83;3.53;;;;;;;6.08;68.48;94751.41;5111182;28;20197;-72
2021/12/13 06:21:50;;;;;;;3.87;3.50;;;;;;;6.10;68.59;94749.59;5112368;28;20197;-72
2021/12/13 06:24:25;;;;;;;4.20;3.83;;;;;;;6.12;68.65;94749.47;5106742;28;20276;-73
2021/12/13 06:27:02;;;;;;;3.70;3.40;;;;;;;6.13;68.87;94761.25;5088707;28;20776;-73
2021/12/13 06:29:51;;;;;;;4.23;3.83;;;;;;;6.14;68.71;94767.97;5088671;28;20225;-71
2021/12/13 06:32:26;;;;;;;4.17;3.77;;;;;;;6.15;68.80;94760.22;5088854;28;20206;-72
2021/12/13 06:34:53;;;;;;;4.03;3.67;;;;;;;6.16;68.58;94764.38;5088635;28;20192;-72
2021/12/13 06:37:26;;;;;;;4.03;3.63;;;;;;;6.18;68.52;94762.56;5088960;28;20197;-73
2021/12/13 06:40:11;;;;;;;6.10;3.80;;;;;;;6.20;68.65;94762.44;5088730;28;20194;-72
2021/12/13 06:42:38;;;;;;;4.80;3.60;;;;;;;6.20;68.65;94773.41;5088617;28;20208;-76
2021/12/13 06:45:19;;;;;;;7.07;4.80;;;;;;;6.21;68.70;94779.28;5088907;28;20236;-72
2021/12/13 06:47:48;;;;;;;5.47;3.90;;;;;;;6.41;88.25;94780.41;5088694;28;20193;-72
2021/12/13 06:50:22;;;;;;;3.60;3.30;;;;;;;6.68;86.77;94780.94;5088792;28;20189;-72
2021/12/13 06:52:49;;;;;;;4.07;3.70;;;;;;;6.79;82.63;94782.72;5088453;28;20197;-73
2021/12/13 06:55:18;;;;;;;3.50;3.20;;;;;;;6.73;79.16;94771.25;5089016;28;20231;-72
2021/12/13 06:57:48;;;;;;;4.40;4.00;;;;;;;6.79;76.31;94772.53;5088144;28;20182;-72
2021/12/13 07:00:27;;;;;;;4.37;3.97;;;;;;;6.84;75.02;94790.00;5088368;28;20545;-72
2021/12/13 07:02:57;;;;;;;4.77;4.03;;;;;;;6.81;74.09;94790.22;5088199;28;20193;-72
2021/12/13 07:05:27;;;;;;;4.60;4.10;;;;;;;6.79;73.37;94795.41;5089030;28;20189;-73
2021/12/13 07:07:59;;;;;;;4.00;3.70;;;;;;;6.76;72.72;94796.44;5088212;28;20197;-73
2021/12/13 07:10:32;;;;;;;4.50;3.67;;;;;;;6.75;72.64;94794.03;5088633;28;20193;-73
2021/12/13 07:13:01;;;;;;;4.30;3.90;;;;;;;6.74;72.32;94795.75;5087990;28;20277;-75
2021/12/13 07:15:34;;;;;;;4.30;3.90;;;;;;;6.74;71.91;94798.28;5088441;28;20178;-72
2021/12/13 07:18:10;;;;;;;5.33;4.33;;;;;;;6.76;71.57;94791.34;5087835;28;20230;-73
2021/12/13 07:20:40;;;;;;;4.50;4.10;;;;;;;6.76;71.24;94793.91;5089486;28;20193;-72
2021/12/13 07:23:07;;;;;;;5.40;3.10;;;;;;;7.26;100.00;94778.38;5088184;28;20194;-74
2021/12/13 07:25:39;;;;;;;4.83;3.60;;;;;;;8.48;100.00;94778.25;5088183;28;20194;-74
2021/12/13 07:28:08;;;;;;;15.43;3.80;;;;;;;9.57;100.00;94782.06;5087925;28;20224;-75
2021/12/13 07:30:38;;;;;;;2.90;2.70;;;;;;;10.66;100.00;94799.88;5087990;28;20194;-74
2021/12/13 07:33:08;;;;;;;3.07;2.37;;;;;;;11.59;100.00;94805.19;5087796;28;20189;-72
2021/12/13 07:35:37;;;;;;;4.07;2.80;;;;;;;12.39;97.76;94809.66;5088372;28;20186;-76
2021/12/13 07:38:07;;;;;;;2.60;2.40;;;;;;;13.10;91.17;94810.56;5087584;28;20197;-74
2021/12/13 07:40:41;;;;;;;2.57;2.37;;;;;;;13.74;86.00;94807.56;5088358;28;20201;-73
2021/12/13 07:43:18;;;;;;;2.37;2.17;;;;;;;14.37;81.30;94808.88;5105224;27;20207;-72
2021/12/13 07:45:57;;;;;;;2.10;2.00;;;;;;;14.91;77.09;94826.53;5088134;28;20679;-74
2021/12/13 07:48:29;;;;;;;6.03;2.60;;;;;;;15.28;74.14;94816.53;5087508;28;20705;-72
2021/12/13 07:51:08;;;;;;;4.20;2.30;;;;;;;15.76;71.27;94834.66;5088068;28;20208;-77
2021/12/13 07:53:43;;;;;;;2.10;1.90;;;;;;;16.13;69.90;94830.63;5090319;28;20197;-75
2021/12/13 07:56:11;;;;;;;4.30;3.13;;;;;;;16.46;68.31;94836.44;5107108;27;20202;-75
2021/12/13 07:58:41;;;;;;;5.93;2.83;;;;;;;16.68;67.15;94834.84;5113405;27;20196;-72
2021/12/13 08:01:14;;;;;;;5.03;2.90;;;;;;;16.51;63.92;94839.31;5107545;28;20187;-74
2021/12/13 08:03:47;;;;;;;3.80;3.20;;;;;;;16.07;61.00;94837.28;5107782;28;20212;-73
2021/12/13 08:06:14;;;;;;;3.40;3.10;;;;;;;15.57;59.80;94830.63;5108201;28;20221;-72
2021/12/13 08:08:48;;;;;;;3.77;3.47;;;;;;;15.02;58.29;94829.56;5107560;28;20193;-72
2021/12/13 08:11:17;;;;;;;3.60;3.30;;;;;;;14.50;57.81;94829.03;5107516;28;20189;-71
2021/12/13 08:13:56;;;;;;;3.97;3.60;;;;;;;13.97;57.44;94830.97;5107445;28;20209;-71
2021/12/13 08:16:32;;;;;;;3.50;3.20;;;;;;;13.44;57.18;94826.84;5107762;28;20192;-74
2021/12/13 08:19:10;;;;;;;3.80;3.40;;;;;;;13.03;56.91;94833.44;5104836;28;20196;-73
2021/12/13 08:21:43;;;;;;;4.63;3.50;;;;;;;12.61;56.78;94839.19;5089827;28;20613;-73
2021/12/13 08:24:20;;;;;;;4.00;3.70;;;;;;;12.22;57.07;94843.78;5089211;28;20548;-73
2021/12/13 08:26:48;;;;;;;3.90;3.60;;;;;;;11.83;57.27;94828.59;5100670;28;20232;-75
2021/12/13 08:29:21;;;;;;;5.13;4.10;;;;;;;11.55;57.46;94843.91;5099907;28;20576;-72
2021/12/13 08:31:53;;;;;;;4.30;3.80;;;;;;;11.26;57.76;94835.47;5096130;28;20182;-73
2021/12/13 08:34:26;;;;;;;4.73;4.03;;;;;;;10.98;58.01;94839.72;5089435;28;20860;-75
2021/12/13 08:36:53;;;;;;;5.03;4.60;;;;;;;10.74;58.44;94840.91;5087745;28;20594;-72
2021/12/13 08:39:25;;;;;;;4.53;4.13;;;;;;;10.52;58.71;94836.88;5088718;28;20549;-75
2021/12/13 08:41:56;;;;;;;4.40;4.00;;;;;;;10.32;59.06;94848.06;5095432;28;20217;-75
2021/12/13 08:44:27;;;;;;;4.93;4.30;;;;;;;10.14;59.38;94849.56;5110983;28;20243;-75
2021/12/13 08:46:59;;;;;;;4.57;4.17;;;;;;;9.95;59.54;94847.78;5108634;28;20215;-73
2021/12/13 08:49:34;;;;;;;4.90;4.37;;;;;;;9.79;59.75;94835.50;5112972;28;20572;-78
2021/12/13 08:52:08;;;;;;;5.47;4.17;;;;;;;9.63;59.85;94843.66;5112413;28;20188;-74
2021/12/13 08:54:41;;;;;;;4.97;4.47;;;;;;;9.49;60.21;94838.88;5108983;28;20193;-76
2021/12/13 08:57:12;;;;;;;4.43;4.10;;;;;;;9.19;60.60;94814.94;5102409;28;20200;-77
2021/12/13 08:59:51;;;;;;;4.77;4.30;;;;;;;9.22;60.84;94832.56;5114080;28;20200;-78
2021/12/13 09:02:20;;;;;;;4.33;3.93;;;;;;;9.10;61.06;94838.66;5105551;28;20606;-74
2021/12/13 09:04:56;;;;;;;5.40;4.40;;;;;;;9.00;61.30;94837.78;5092016;28;20201;-77
2021/12/13 09:07:25;;;;;;;4.50;4.10;;;;;;;8.78;61.58;94824.22;5111887;28;20703;-77
2021/12/13 09:09:53;;;;;;;4.40;4.00;;;;;;;8.84;61.77;94834.84;5107803;28;20277;-77
2021/12/13 09:12:29;;;;;;;4.13;3.73;;;;;;;8.75;61.58;94844.06;5109398;28;20189;-79
2021/12/13 09:14:57;;;;;;;4.63;3.70;;;;;;;8.67;61.66;94846.41;5100364;28;20196;-76
2021/12/13 09:17:32;;;;;;;3.90;3.50;;;;;;;8.60;61.79;94838.44;5092059;28;20259;-76
2021/12/13 09:20:08;;;;;;;4.20;3.40;;;;;;;8.56;61.94;94833.72;5091402;28;20224;-76
2021/12/13 09:22:37;;;;;;;4.07;3.50;;;;;;;8.51;62.02;94834.91;5109560;28;20211;-76
2021/12/13 09:25:10;;;;;;;4.10;3.80;;;;;;;8.48;62.10;94832.59;5110748;28;20248;-76
2021/12/13 09:27:44;;;;;;;4.17;3.77;;;;;;;8.42;62.06;94829.69;5091469;28;20633;-76
2021/12/13 09:30:21;;;;;;;7.67;4.00;;;;;;;8.28;62.29;94818.00;5091360;28;20212;-75
2021/12/13 09:32:54;;;;;;;6.27;4.13;;;;;;;8.38;62.27;94829.16;5110166;28;20185;-75
2021/12/13 09:35:33;;;;;;;3.93;3.63;;;;;;;8.36;62.35;94830.16;5110318;28;20566;-75
2021/12/13 09:38:04;;;;;;;3.93;3.60;;;;;;;8.30;62.23;94821.28;5111651;28;20201;-74
2021/12/13 09:40:37;;;;;;;5.37;4.20;;;;;;;8.19;62.40;94808.56;5105601;28;20186;-75
2021/12/13 09:43:06;;;;;;;5.47;4.40;;;;;;;8.34;62.40;94829.47;5101040;28;20199;-76
2021/12/13 09:45:37;;;;;;;4.40;4.00;;;;;;;8.26;62.42;94807.97;5111275;28;20706;-77
2021/12/13 09:48:19;;;;;;;4.53;4.00;;;;;;;8.40;62.49;94821.38;5103463;28;20208;-75
2021/12/13 09:50:51;;;;;;;4.70;4.20;;;;;;;8.42;62.45;94816.94;5111913;28;20185;-75
2021/12/13 09:53:22;;;;;;;4.50;4.10;;;;;;;8.28;62.33;94808.63;5110252;28;20185;-74
2021/12/13 09:55:51;;;;;;;4.73;4.30;;;;;;;8.45;62.31;94825.16;5094797;28;20201;-75
2021/12/13 09:58:22;;;;;;;4.57;4.17;;;;;;;8.46;62.47;94821.72;5090663;28;20200;-78
2021/12/13 10:00:53;;;;;;;4.40;4.00;;;;;;;8.40;62.40;94809.44;5106509;28;20205;-78
2021/12/13 10:03:29;;;;;;;4.67;4.27;;;;;;;8.42;62.25;94814.41;5102419;28;20202;-73
2021/12/13 10:06:03;;;;;;;4.10;3.70;;;;;;;8.34;62.43;94797.16;5104798;28;20195;-74
2021/12/13 10:08:42;;;;;;;5.70;4.63;;;;;;;8.50;62.33;94819.69;5108737;28;20262;-75
2021/12/13 10:11:14;;;;;;;4.60;4.20;;;;;;;8.50;62.33;94812.88;5107574;28;20185;-74
2021/12/13 10:13:42;;;;;;;3.93;3.63;;;;;;;8.42;62.31;94802.50;5100838;28;20386;-73
2021/12/13 10:16:14;;;;;;;4.07;3.67;;;;;;;8.51;62.20;94813.69;5090633;28;20292;-74
2021/12/13 10:18:44;;;;;;;3.60;3.30;;;;;;;8.39;62.05;94781.53;5105959;28;20208;-73
2021/12/13 10:21:18;;;;;;;3.63;3.33;;;;;;;8.58;62.09;94808.91;5099507;28;20422;-74
2021/12/13 10:23:48;;;;;;;4.40;4.00;;;;;;;8.59;62.01;94806.22;5091412;28;20190;-74
2021/12/13 10:26:17;;;;;;;5.00;4.53;;;;;;;8.61;62.06;94803.56;5091953;28;20557;-75
2021/12/13 10:28:54;;;;;;;4.87;4.37;;;;;;;8.62;61.91;94805.19;5108265;28;20211;-73
2021/12/13 10:31:24;;;;;;;6.53;4.10;;;;;;;8.62;61.88;94800.88;5108063;28;20277;-77
2021/12/13 10:33:55;;;;;;;4.13;3.73;;;;;;;8.66;61.88;94809.91;5105402;28;20216;-75
2021/12/13 10:36:22;;;;;;;5.00;4.20;;;;;;;8.53;61.98;94773.59;5101534;28;20272;-76
2021/12/13 10:38:53;;;;;;;4.37;3.97;;;;;;;8.50;61.89;94769.53;5087537;28;20901;-75
2021/12/13 10:41:24;;;;;;;4.57;4.03;;;;;;;8.70;61.59;94797.72;5100515;28;20197;-73
2021/12/13 10:43:55;;;;;;;4.20;3.80;;;;;;;8.70;61.79;94790.88;5107396;28;20232;-75
2021/12/13 10:46:26;;;;;;;4.20;3.80;;;;;;;8.71;61.62;94794.25;5087186;28;20656;-74
2021/12/13 10:48:58;;;;;;;5.10;4.10;;;;;;;8.71;61.57;94792.50;5095819;28;20200;-73
2021/12/13 10:51:28;;;;;;;4.13;3.53;;;;;;;8.74;61.49;94796.56;5105504;28;20196;-78
2021/12/13 10:53:58;;;;;;;3.87;3.57;;;;;;;8.71;61.27;94784.03;5087489;28;20217;-77
2021/12/13 10:56:29;;;;;;;6.00;4.57;;;;;;;8.57;61.40;94756.31;5087971;28;20221;-77
2021/12/13 10:58:59;;;;;;;4.40;4.00;;;;;;;8.72;61.36;94778.00;5087148;28;20237;-77
2021/12/13 11:01:31;;;;;;;5.17;4.70;;;;;;;8.59;61.26;94760.34;5087435;28;20190;-75
2021/12/13 11:04:03;;;;;;;6.27;5.00;;;;;;;8.66;61.27;94763.22;5104577;28;20212;-74
2021/12/13 11:06:30;;;;;;;5.00;4.57;;;;;;;8.84;61.26;94791.50;5105339;28;20196;-74
2021/12/13 11:08:57;;;;;;;4.67;4.27;;;;;;;8.86;60.90;94787.91;5107176;28;20196;-74
2021/12/13 11:11:29;;;;;;;5.30;4.70;;;;;;;8.86;61.27;94790.47;5107539;28;20201;-74
2021/12/13 11:13:58;;;;;;;5.57;4.97;;;;;;;8.82;61.05;94783.19;5107497;28;20207;-75
2021/12/13 11:16:31;;;;;;;5.70;4.70;;;;;;;8.83;61.02;94787.34;5103607;28;20190;-79
2021/12/13 11:19:01;;;;;;;4.73;4.23;;;;;;;8.84;60.78;94789.75;5086682;28;20197;-73
2021/12/13 11:21:31;;;;;;;5.07;4.40;;;;;;;8.70;61.01;94767.13;5087005;28;20652;-76
2021/12/13 11:24:00;;;;;;;4.37;3.97;;;;;;;8.82;61.07;94785.75;5087063;28;20682;-77
2021/12/13 11:26:31;;;;;;;4.70;4.30;;;;;;;8.79;61.01;94790.13;5104663;28;20198;-75
2021/12/13 11:29:00;;;;;;;5.13;4.67;;;;;;;8.78;61.20;94785.97;5104054;28;20224;-73
2021/12/13 11:32:15;;;;;;;5.67;4.50;;;;;;;8.79;61.23;94784.22;5106787;28;20684;-73
2021/12/13 11:34:59;;;;;;;5.07;4.57;;;;;;;8.77;61.32;94792.03;5098807;28;20198;-74
2021/12/13 11:37:50;;;;;;;5.00;4.57;;;;;;;8.77;61.66;94789.47;5086638;28;20192;-74
2021/12/13 11:40:35;;;;;;;5.30;4.77;;;;;;;8.75;61.27;94786.22;5090405;28;20188;-75
2021/12/13 11:43:25;;;;;;;5.37;4.30;;;;;;;8.73;61.38;94788.09;5105322;28;20192;-75
2021/12/13 11:46:20;;;;;;;5.70;5.00;;;;;;;8.70;61.58;94784.97;5086150;28;20197;-75
2021/12/13 11:49:03;;;;;;;6.87;4.83;;;;;;;8.63;61.70;94776.19;5106133;28;20212;-76
2021/12/13 11:51:54;;;;;;;5.67;5.13;;;;;;;8.21;61.57;94715.81;5104165;28;20628;-73
2021/12/13 11:54:44;;;;;;;5.93;4.70;;;;;;;8.66;61.66;94786.16;5085991;28;20633;-77
2021/12/13 11:57:38;;;;;;;5.17;4.60;;;;;;;8.39;61.66;94753.50;5101185;28;20665;-75
2021/12/13 12:00:27;;;;;;;4.90;4.40;;;;;;;8.60;61.91;94790.03;5001621;28;20207;-75
2021/12/13 12:03:32;;;;;;;5.50;5.00;;;;;;;8.57;62.06;94795.34;5001634;28;20331;-77
2021/12/13 12:06:42;;;;;;;4.80;4.30;;;;;;;8.55;62.05;94799.78;5003135;28;20200;-75
2021/12/13 12:09:57;;;;;;;5.23;4.73;;;;;;;8.53;62.18;94794.78;5002397;28;20224;-74
2021/12/13 12:12:53;;;;;;;4.90;4.40;;;;;;;8.48;62.16;94794.34;4963532;28;20582;-74